Time;durP1;ratioP1;P1;durP2;ratioP2;P2;SDS_P1;SDS_P2;PMS_P1;PMS_P2;Temp;Humidity;BMP_temperature;BMP_pressure;BME280_temperature;BME280_humidity;BME280_pressure;Samples;Min_cycle;Max_cycle;Signal;HPM_P1;HPM_P2
2022/03/07 00:02:13;;;;;;;8.82;4.40;;;;;;;;;;4977263;28;20050;-71
2022/03/07 00:04:40;;;;;;;10.48;4.68;;;;;;;;;;4983380;28;20054;-71
2022/03/07 00:07:06;;;;;;;13.38;4.43;;;;;;;;;;4973727;28;20057;-70
2022/03/07 00:09:32;;;;;;;8.35;5.15;;;;;;;;;;4982833;28;20046;-70
2022/03/07 00:11:59;;;;;;;5.88;4.03;;;;;;;;;;4968455;28;20043;-71
2022/03/07 00:14:25;;;;;;;8.23;4.13;;;;;;;;;;4974539;28;20046;-71
2022/03/07 00:16:51;;;;;;;8.95;4.88;;;;;;;;;;4958196;28;20047;-70
2022/03/07 00:19:18;;;;;;;6.82;4.00;;;;;;;;;;4966568;28;20555;-71
2022/03/07 00:21:44;;;;;;;7.45;4.40;;;;;;;;;;4985914;28;20097;-71
2022/03/07 00:24:10;;;;;;;11.45;4.70;;;;;;;;;;4973962;28;20083;-72
2022/03/07 00:26:37;;;;;;;8.63;4.45;;;;;;;;;;4965925;28;20047;-70
2022/03/07 00:29:03;;;;;;;7.32;4.40;;;;;;;;;;4962053;28;20060;-70
2022/03/07 00:31:29;;;;;;;6.57;4.20;;;;;;;;;;4989359;28;20046;-70
2022/03/07 00:33:56;;;;;;;8.23;4.38;;;;;;;;;;4964652;28;20468;-70
2022/03/07 00:36:22;;;;;;;7.45;4.38;;;;;;;;;;4976321;28;20046;-70
2022/03/07 00:38:49;;;;;;;6.65;4.60;;;;;;;;;;4980965;28;20046;-70
2022/03/07 00:41:15;;;;;;;7.53;4.28;;;;;;;;;;4970158;28;20038;-71
2022/03/07 00:43:42;;;;;;;8.23;4.60;;;;;;;;;;4986650;28;20522;-68
2022/03/07 00:46:08;;;;;;;8.02;4.28;;;;;;;;;;4977601;28;20054;-71
2022/03/07 00:48:35;;;;;;;9.48;4.45;;;;;;;;;;4979892;28;20105;-71
2022/03/07 00:51:01;;;;;;;9.48;4.82;;;;;;;;;;4982250;28;20046;-70
2022/03/07 00:53:28;;;;;;;9.65;5.32;;;;;;;;;;4961364;28;20046;-71
2022/03/07 00:55:55;;;;;;;8.23;5.00;;;;;;;;;;4981810;28;20054;-71
2022/03/07 00:58:22;;;;;;;7.43;3.97;;;;;;;;;;4972942;28;20050;-71
2022/03/07 01:00:48;;;;;;;9.80;4.70;;;;;;;;;;4992335;28;20046;-71
2022/03/07 01:03:16;;;;;;;9.43;4.47;;;;;;;;;;4974364;28;20061;-71
2022/03/07 01:05:44;;;;;;;8.38;4.80;;;;;;;;;;4978779;28;20462;-71
2022/03/07 01:08:10;;;;;;;9.30;4.97;;;;;;;;;;4976103;28;20050;-70
2022/03/07 01:10:37;;;;;;;8.68;4.57;;;;;;;;;;4981325;28;20092;-71
2022/03/07 01:13:04;;;;;;;6.93;4.35;;;;;;;;;;4983060;28;20125;-70
2022/03/07 01:15:31;;;;;;;9.05;5.15;;;;;;;;;;4975844;28;20480;-70
2022/03/07 01:17:59;;;;;;;9.57;4.78;;;;;;;;;;4985780;28;20050;-70
2022/03/07 01:20:28;;;;;;;9.80;5.07;;;;;;;;;;4979033;28;20046;-71
2022/03/07 01:22:54;;;;;;;7.85;4.75;;;;;;;;;;4973945;28;20495;-70
2022/03/07 01:25:21;;;;;;;8.82;4.88;;;;;;;;;;4980897;28;20133;-71
2022/03/07 01:27:47;;;;;;;9.52;5.40;;;;;;;;;;4982435;28;20050;-70
2022/03/07 01:30:13;;;;;;;8.98;4.97;;;;;;;;;;4984903;28;20073;-70
2022/03/07 01:32:40;;;;;;;7.32;4.72;;;;;;;;;;4978320;28;20522;-70
2022/03/07 01:35:06;;;;;;;6.93;5.03;;;;;;;;;;4972541;28;20051;-71
2022/03/07 01:37:33;;;;;;;7.60;4.63;;;;;;;;;;4970579;28;20058;-71
2022/03/07 01:39:59;;;;;;;9.40;5.30;;;;;;;;;;4977143;28;20133;-70
2022/03/07 01:42:25;;;;;;;6.78;4.60;;;;;;;;;;4984502;28;20062;-70
2022/03/07 01:44:52;;;;;;;8.38;5.03;;;;;;;;;;4975114;28;20234;-71
2022/03/07 01:47:18;;;;;;;8.95;5.20;;;;;;;;;;4980205;28;20058;-71
2022/03/07 01:49:44;;;;;;;9.80;5.10;;;;;;;;;;4955287;28;20080;-70
2022/03/07 01:52:12;;;;;;;8.70;5.00;;;;;;;;;;4985221;28;20046;-70
2022/03/07 01:54:39;;;;;;;8.07;5.03;;;;;;;;;;4981372;28;20050;-70
2022/03/07 01:57:05;;;;;;;9.82;4.93;;;;;;;;;;4979043;28;20098;-70
2022/03/07 01:59:33;;;;;;;7.78;4.65;;;;;;;;;;4982284;28;20061;-70
2022/03/07 02:02:00;;;;;;;8.60;5.38;;;;;;;;;;4962102;28;20042;-70
2022/03/07 02:04:30;;;;;;;9.23;5.32;;;;;;;;;;4972288;28;20050;-70
2022/03/07 02:06:56;;;;;;;9.43;4.88;;;;;;;;;;4970575;28;20076;-70
2022/03/07 02:09:23;;;;;;;8.20;4.82;;;;;;;;;;4969271;28;20054;-70
2022/03/07 02:11:49;;;;;;;8.35;5.00;;;;;;;;;;4978953;28;20404;-70
2022/03/07 02:14:17;;;;;;;9.07;4.85;;;;;;;;;;4989104;28;20046;-70
2022/03/07 02:16:44;;;;;;;7.95;4.97;;;;;;;;;;4978641;28;20050;-70
2022/03/07 02:19:10;;;;;;;10.85;4.90;;;;;;;;;;4969444;28;20062;-70
2022/03/07 02:21:39;;;;;;;8.68;5.05;;;;;;;;;;4981720;28;20050;-70
2022/03/07 02:24:06;;;;;;;9.20;5.10;;;;;;;;;;4989329;28;20077;-70
2022/03/07 02:26:32;;;;;;;11.00;5.75;;;;;;;;;;4985537;28;20076;-70
2022/03/07 02:28:58;;;;;;;8.00;5.55;;;;;;;;;;4973962;28;20052;-70
2022/03/07 02:31:25;;;;;;;7.72;5.30;;;;;;;;;;4974425;28;20049;-70
2022/03/07 02:33:51;;;;;;;8.20;5.30;;;;;;;;;;4984392;28;20057;-70
2022/03/07 02:36:18;;;;;;;9.48;5.18;;;;;;;;;;4978146;28;20046;-70
2022/03/07 02:38:44;;;;;;;10.13;5.43;;;;;;;;;;4988843;28;20050;-70
2022/03/07 02:41:10;;;;;;;9.25;5.70;;;;;;;;;;4972808;28;20507;-70
2022/03/07 02:43:37;;;;;;;9.35;5.50;;;;;;;;;;4971348;28;20049;-70
2022/03/07 02:46:04;;;;;;;11.32;5.47;;;;;;;;;;4977269;28;20065;-70
2022/03/07 02:48:30;;;;;;;8.13;5.05;;;;;;;;;;4974252;28;20105;-70
2022/03/07 02:50:58;;;;;;;8.32;5.32;;;;;;;;;;4992628;28;20097;-70
2022/03/07 02:53:25;;;;;;;10.35;5.72;;;;;;;;;;4973940;28;20046;-70
2022/03/07 02:55:52;;;;;;;8.25;5.03;;;;;;;;;;4979049;28;20046;-70
2022/03/07 02:58:18;;;;;;;10.40;5.70;;;;;;;;;;4969686;28;20046;-70
2022/03/07 03:00:46;;;;;;;10.98;5.65;;;;;;;;;;4987406;28;20050;-70
2022/03/07 03:03:12;;;;;;;9.68;5.95;;;;;;;;;;4980963;28;20137;-70
2022/03/07 03:05:39;;;;;;;9.77;5.78;;;;;;;;;;4973944;28;20515;-71
2022/03/07 03:08:05;;;;;;;10.70;5.82;;;;;;;;;;4984731;28;20596;-70
2022/03/07 03:10:31;;;;;;;7.78;5.25;;;;;;;;;;4968344;28;20043;-70
2022/03/07 03:12:58;;;;;;;9.20;6.00;;;;;;;;;;4976328;28;20110;-70
2022/03/07 03:15:24;;;;;;;7.97;5.38;;;;;;;;;;4976207;28;20046;-71
2022/03/07 03:17:51;;;;;;;9.52;6.05;;;;;;;;;;4984019;28;20061;-70
2022/03/07 03:20:17;;;;;;;9.32;6.00;;;;;;;;;;4984410;28;20055;-70
2022/03/07 03:22:44;;;;;;;12.35;5.90;;;;;;;;;;4984614;28;20054;-70
2022/03/07 03:25:11;;;;;;;10.13;6.28;;;;;;;;;;4978874;28;20483;-70
2022/03/07 03:27:38;;;;;;;9.63;6.20;;;;;;;;;;4978428;28;20049;-70
2022/03/07 03:30:05;;;;;;;9.65;5.78;;;;;;;;;;4983603;28;20050;-70
2022/03/07 03:32:32;;;;;;;8.23;5.28;;;;;;;;;;4978413;28;20072;-70
2022/03/07 03:34:58;;;;;;;10.88;5.80;;;;;;;;;;4983229;28;20047;-71
2022/03/07 03:37:25;;;;;;;9.75;5.63;;;;;;;;;;4979581;28;20050;-70
2022/03/07 03:39:51;;;;;;;11.05;5.75;;;;;;;;;;4972625;28;20052;-70
2022/03/07 03:42:17;;;;;;;9.57;5.95;;;;;;;;;;4984860;28;20047;-70
2022/03/07 03:44:44;;;;;;;12.07;6.13;;;;;;;;;;4975384;28;20054;-70
2022/03/07 03:47:10;;;;;;;10.52;6.05;;;;;;;;;;4985922;28;20379;-70
2022/03/07 03:49:37;;;;;;;10.63;5.95;;;;;;;;;;4985858;28;20052;-70
2022/03/07 03:52:03;;;;;;;11.93;5.88;;;;;;;;;;4975821;28;20062;-70
2022/03/07 03:54:30;;;;;;;9.50;6.13;;;;;;;;;;4966765;28;20046;-70
2022/03/07 03:56:56;;;;;;;10.93;5.85;;;;;;;;;;4976678;28;20481;-70
2022/03/07 03:59:22;;;;;;;11.57;6.00;;;;;;;;;;4985733;28;20066;-70
2022/03/07 04:01:49;;;;;;;11.68;6.32;;;;;;;;;;4977655;28;20593;-70
2022/03/07 04:04:15;;;;;;;10.73;6.55;;;;;;;;;;4995462;28;20086;-70
2022/03/07 04:06:42;;;;;;;10.15;6.60;;;;;;;;;;4976654;28;20050;-70
2022/03/07 04:09:19;;;;;;;13.00;6.40;;;;;;;;;;4973659;28;20050;-70
2022/03/07 04:11:45;;;;;;;10.65;6.55;;;;;;;;;;4988474;28;20042;-70
2022/03/07 04:14:12;;;;;;;9.82;6.35;;;;;;;;;;4980018;28;20081;-70
2022/03/07 04:16:38;;;;;;;10.60;6.40;;;;;;;;;;4992973;28;20053;-70
2022/03/07 04:19:06;;;;;;;10.52;6.00;;;;;;;;;;4971218;28;20312;-70
2022/03/07 04:21:33;;;;;;;10.75;6.20;;;;;;;;;;4983589;28;20073;-70
2022/03/07 04:23:59;;;;;;;12.57;6.32;;;;;;;;;;4981210;28;20081;-71
2022/03/07 04:26:26;;;;;;;10.60;6.63;;;;;;;;;;4985755;28;20081;-70
2022/03/07 04:28:52;;;;;;;11.95;6.47;;;;;;;;;;4981813;28;20058;-70
2022/03/07 04:31:19;;;;;;;11.85;6.35;;;;;;;;;;4975675;28;20050;-70
2022/03/07 04:33:45;;;;;;;12.85;6.80;;;;;;;;;;4976012;28;20050;-70
2022/03/07 04:36:13;;;;;;;11.35;6.68;;;;;;;;;;4982920;28;20049;-71
2022/03/07 04:38:39;;;;;;;12.43;7.38;;;;;;;;;;4981293;28;20431;-71
2022/03/07 04:41:05;;;;;;;14.85;8.07;;;;;;;;;;4983738;28;20046;-70
2022/03/07 04:43:32;;;;;;;15.90;7.00;;;;;;;;;;4969052;28;20780;-70
2022/03/07 04:45:58;;;;;;;12.00;6.85;;;;;;;;;;4975035;28;20440;-70
2022/03/07 04:48:25;;;;;;;17.35;7.78;;;;;;;;;;4973915;28;20050;-70
2022/03/07 04:50:51;;;;;;;12.73;6.93;;;;;;;;;;4990486;28;20054;-70
2022/03/07 04:53:18;;;;;;;10.45;6.40;;;;;;;;;;4974380;28;20058;-70
2022/03/07 04:55:44;;;;;;;9.52;6.60;;;;;;;;;;4975097;28;20463;-70
2022/03/07 04:58:10;;;;;;;11.32;7.38;;;;;;;;;;4983800;28;20432;-71
2022/03/07 05:00:37;;;;;;;12.50;7.63;;;;;;;;;;4970347;28;20414;-70
2022/03/07 05:03:03;;;;;;;13.23;7.75;;;;;;;;;;4977478;28;20443;-71
2022/03/07 05:05:30;;;;;;;12.07;7.55;;;;;;;;;;4976903;28;20046;-70
2022/03/07 05:07:56;;;;;;;11.73;6.97;;;;;;;;;;4983962;28;20062;-71
2022/03/07 05:10:22;;;;;;;13.27;7.63;;;;;;;;;;4982762;28;20050;-70
2022/03/07 05:12:55;;;;;;;14.00;7.68;;;;;;;;;;4984060;28;20201;-70
2022/03/07 05:15:21;;;;;;;14.18;7.75;;;;;;;;;;4983176;28;20267;-70
2022/03/07 05:17:51;;;;;;;13.63;8.07;;;;;;;;;;4984281;28;20753;-70
2022/03/07 05:20:17;;;;;;;13.38;7.53;;;;;;;;;;4982361;28;20050;-71
2022/03/07 05:22:44;;;;;;;13.32;7.45;;;;;;;;;;4975587;28;20053;-70
2022/03/07 05:25:11;;;;;;;12.70;7.82;;;;;;;;;;4992579;28;20064;-70
2022/03/07 05:27:38;;;;;;;13.32;7.60;;;;;;;;;;4981367;28;20132;-70
2022/03/07 05:30:05;;;;;;;10.13;6.63;;;;;;;;;;4983764;28;20054;-70
2022/03/07 05:32:31;;;;;;;12.68;7.32;;;;;;;;;;4978430;28;20459;-70
2022/03/07 05:34:58;;;;;;;13.05;7.22;;;;;;;;;;4975326;28;20623;-70
2022/03/07 05:37:24;;;;;;;12.85;7.53;;;;;;;;;;4981565;28;20420;-70
2022/03/07 05:39:51;;;;;;;10.98;7.38;;;;;;;;;;4976075;28;20364;-70
2022/03/07 05:42:17;;;;;;;10.63;7.03;;;;;;;;;;4979417;28;20370;-70
2022/03/07 05:44:43;;;;;;;10.27;7.13;;;;;;;;;;4973094;28;20073;-70
2022/03/07 05:47:10;;;;;;;12.48;7.40;;;;;;;;;;4979409;28;20054;-70
2022/03/07 05:49:36;;;;;;;13.20;7.55;;;;;;;;;;4981796;28;20042;-70
2022/03/07 05:52:03;;;;;;;19.23;8.07;;;;;;;;;;4975316;28;20054;-71
2022/03/07 05:54:30;;;;;;;12.05;7.40;;;;;;;;;;4983264;28;20046;-71
2022/03/07 05:56:56;;;;;;;13.40;7.90;;;;;;;;;;4975025;28;20045;-71
2022/03/07 05:59:22;;;;;;;17.25;8.10;;;;;;;;;;4978564;28;20474;-70
2022/03/07 06:01:49;;;;;;;12.45;7.60;;;;;;;;;;4983272;28;20065;-71
2022/03/07 06:04:15;;;;;;;12.35;7.55;;;;;;;;;;4974619;28;20557;-71
2022/03/07 06:06:41;;;;;;;14.13;7.30;;;;;;;;;;4982900;28;20082;-70
2022/03/07 06:09:08;;;;;;;12.43;7.70;;;;;;;;;;4971838;28;20055;-70
2022/03/07 06:11:34;;;;;;;14.00;7.53;;;;;;;;;;4987961;28;20082;-70
2022/03/07 06:14:00;;;;;;;16.52;7.70;;;;;;;;;;4968254;28;20049;-70
2022/03/07 06:16:27;;;;;;;12.23;7.82;;;;;;;;;;4980947;28;20358;-70
2022/03/07 06:18:53;;;;;;;11.90;8.27;;;;;;;;;;4980188;28;20046;-70
2022/03/07 06:21:19;;;;;;;20.73;7.60;;;;;;;;;;4975684;28;20057;-71
2022/03/07 06:23:46;;;;;;;14.50;7.47;;;;;;;;;;4978344;28;20061;-70
2022/03/07 06:26:12;;;;;;;12.45;7.78;;;;;;;;;;4984307;28;20539;-70
2022/03/07 06:28:38;;;;;;;12.75;7.40;;;;;;;;;;4980555;28;20614;-70
2022/03/07 06:31:04;;;;;;;15.27;7.25;;;;;;;;;;4968870;28;20050;-70
2022/03/07 06:33:31;;;;;;;14.98;8.00;;;;;;;;;;4994135;28;20488;-71
2022/03/07 06:35:57;;;;;;;15.15;7.85;;;;;;;;;;4982600;28;20090;-70
2022/03/07 06:38:23;;;;;;;11.30;7.25;;;;;;;;;;4969082;28;20050;-70
2022/03/07 06:40:50;;;;;;;13.20;7.82;;;;;;;;;;4975858;28;20834;-70
2022/03/07 06:43:17;;;;;;;13.32;7.82;;;;;;;;;;4968804;28;20042;-71
2022/03/07 06:45:43;;;;;;;12.45;7.03;;;;;;;;;;4978582;28;20721;-70
2022/03/07 06:48:09;;;;;;;14.32;8.07;;;;;;;;;;4972992;28;20054;-70
2022/03/07 06:50:36;;;;;;;13.52;8.00;;;;;;;;;;4979463;28;20511;-70
2022/03/07 06:53:02;;;;;;;16.45;9.43;;;;;;;;;;4978630;28;20084;-70
2022/03/07 06:55:29;;;;;;;20.40;12.35;;;;;;;;;;4970243;28;20085;-70
2022/03/07 06:57:55;;;;;;;25.98;14.82;;;;;;;;;;4985325;28;20542;-70
2022/03/07 07:00:21;;;;;;;25.95;12.00;;;;;;;;;;4977023;28;20054;-70
2022/03/07 07:02:48;;;;;;;17.63;10.20;;;;;;;;;;5003690;28;20069;-71
2022/03/07 07:05:14;;;;;;;21.02;11.80;;;;;;;;;;4977696;28;20451;-70
2022/03/07 07:07:42;;;;;;;18.33;9.38;;;;;;;;;;4979666;28;20050;-70
2022/03/07 07:10:09;;;;;;;13.65;9.23;;;;;;;;;;4984625;28;20065;-70
2022/03/07 07:12:35;;;;;;;18.60;9.68;;;;;;;;;;4981346;28;20550;-70
2022/03/07 07:15:06;;;;;;;16.70;9.55;;;;;;;;;;4982453;28;20049;-70
2022/03/07 07:17:33;;;;;;;17.25;8.68;;;;;;;;;;4974171;28;20504;-70
2022/03/07 07:19:59;;;;;;;13.73;8.73;;;;;;;;;;4980443;28;20054;-70
2022/03/07 07:22:26;;;;;;;17.05;9.30;;;;;;;;;;4975093;28;20054;-70
2022/03/07 07:24:58;;;;;;;15.65;9.55;;;;;;;;;;4992580;28;20065;-70
2022/03/07 07:27:24;;;;;;;19.10;9.48;;;;;;;;;;4984943;28;21823;-70
2022/03/07 07:29:50;;;;;;;14.90;8.68;;;;;;;;;;4974403;28;20057;-70
2022/03/07 07:32:17;;;;;;;17.10;9.10;;;;;;;;;;4984050;28;21645;-70
2022/03/07 07:34:43;;;;;;;16.10;9.20;;;;;;;;;;4964528;28;20042;-71
2022/03/07 07:37:10;;;;;;;15.45;9.48;;;;;;;;;;4978615;28;20050;-70
2022/03/07 07:39:42;;;;;;;18.85;9.85;;;;;;;;;;4976322;28;20073;-71
2022/03/07 07:42:08;;;;;;;15.52;9.55;;;;;;;;;;4981240;28;20433;-71
2022/03/07 07:44:34;;;;;;;17.95;9.68;;;;;;;;;;4984624;28;20058;-70
2022/03/07 07:47:01;;;;;;;16.40;9.38;;;;;;;;;;4975168;28;20050;-70
2022/03/07 07:49:29;;;;;;;12.13;8.20;;;;;;;;;;4969731;28;20047;-70
2022/03/07 07:51:55;;;;;;;17.13;8.57;;;;;;;;;;4973317;28;20495;-70
2022/03/07 07:54:22;;;;;;;14.60;9.73;;;;;;;;;;4983412;28;20448;-70
2022/03/07 07:56:48;;;;;;;18.52;10.02;;;;;;;;;;4969423;28;20392;-71
2022/03/07 07:59:14;;;;;;;18.95;9.50;;;;;;;;;;4980619;28;20050;-70
2022/03/07 08:01:40;;;;;;;13.70;9.35;;;;;;;;;;4979426;28;20057;-70
2022/03/07 08:04:08;;;;;;;15.90;9.63;;;;;;;;;;4967250;28;20050;-70
2022/03/07 08:06:34;;;;;;;17.05;10.02;;;;;;;;;;4979376;28;20057;-70
2022/03/07 08:09:02;;;;;;;17.77;9.52;;;;;;;;;;4968391;28;20503;-69
2022/03/07 08:11:29;;;;;;;14.93;9.73;;;;;;;;;;4994185;28;20526;-70
2022/03/07 08:13:55;;;;;;;14.02;8.88;;;;;;;;;;4973774;28;20207;-70
2022/03/07 08:16:21;;;;;;;15.88;9.00;;;;;;;;;;4996220;28;20538;-69
2022/03/07 08:18:48;;;;;;;12.45;8.07;;;;;;;;;;4977751;28;20133;-69
2022/03/07 08:21:14;;;;;;;17.25;9.15;;;;;;;;;;4961100;28;20091;-70
2022/03/07 08:23:40;;;;;;;17.50;10.02;;;;;;;;;;4984272;28;20050;-69
2022/03/07 08:26:06;;;;;;;15.55;9.05;;;;;;;;;;4991402;28;20494;-70
2022/03/07 08:28:33;;;;;;;14.02;7.93;;;;;;;;;;4981034;28;20047;-70
2022/03/07 08:30:59;;;;;;;25.77;9.73;;;;;;;;;;4965744;28;20074;-70
2022/03/07 08:33:27;;;;;;;15.70;9.13;;;;;;;;;;4975490;28;20050;-72
2022/03/07 08:35:55;;;;;;;13.07;8.57;;;;;;;;;;4978385;28;20054;-71
2022/03/07 08:38:21;;;;;;;13.30;8.23;;;;;;;;;;4975208;28;20627;-70
2022/03/07 08:40:48;;;;;;;15.13;9.07;;;;;;;;;;4982379;28;20054;-70
2022/03/07 08:43:14;;;;;;;12.23;8.52;;;;;;;;;;4979467;28;20050;-70
2022/03/07 08:45:40;;;;;;;13.02;8.18;;;;;;;;;;4976227;28;20054;-70
2022/03/07 08:48:21;;;;;;;14.20;8.82;;;;;;;;;;4990536;28;20108;-70
2022/03/07 08:50:48;;;;;;;17.17;7.95;;;;;;;;;;4984676;28;20053;-69
2022/03/07 08:53:16;;;;;;;11.65;7.35;;;;;;;;;;4983397;28;20054;-70
2022/03/07 08:55:42;;;;;;;11.20;7.13;;;;;;;;;;4976720;28;20054;-69
2022/03/07 08:58:16;;;;;;;18.38;8.23;;;;;;;;;;4976389;28;20053;-70
2022/03/07 09:00:42;;;;;;;10.10;6.70;;;;;;;;;;4973933;28;20325;-69
2022/03/07 09:03:09;;;;;;;9.32;6.63;;;;;;;;;;4982434;28;20058;-70
2022/03/07 09:05:35;;;;;;;12.02;6.00;;;;;;;;;;4981393;28;20487;-69
2022/03/07 09:08:02;;;;;;;20.50;7.65;;;;;;;;;;4992275;28;20046;-69
2022/03/07 09:10:28;;;;;;;11.90;6.60;;;;;;;;;;4978585;28;20054;-69
2022/03/07 09:12:55;;;;;;;9.77;6.63;;;;;;;;;;4966501;28;20061;-69
2022/03/07 09:15:21;;;;;;;9.77;6.15;;;;;;;;;;4983889;28;20556;-69
2022/03/07 09:17:47;;;;;;;9.40;6.57;;;;;;;;;;4971544;28;20054;-69
2022/03/07 09:20:16;;;;;;;13.13;6.68;;;;;;;;;;4982415;28;20046;-70
2022/03/07 09:22:43;;;;;;;8.10;5.22;;;;;;;;;;4970827;28;20046;-69
2022/03/07 09:25:10;;;;;;;10.27;6.18;;;;;;;;;;4976590;28;20057;-69
2022/03/07 09:27:37;;;;;;;9.85;6.25;;;;;;;;;;4981162;28;20358;-69
2022/03/07 09:30:04;;;;;;;11.80;6.43;;;;;;;;;;4975159;28;20515;-70
2022/03/07 09:32:30;;;;;;;10.68;6.40;;;;;;;;;;4980858;28;20519;-69
2022/03/07 09:34:57;;;;;;;8.95;5.80;;;;;;;;;;4976100;28;20050;-69
2022/03/07 09:37:23;;;;;;;9.07;5.88;;;;;;;;;;4979890;28;20053;-70
2022/03/07 09:39:50;;;;;;;8.75;5.90;;;;;;;;;;4973246;28;20050;-70
2022/03/07 09:42:16;;;;;;;8.18;5.20;;;;;;;;;;4977164;28;20814;-70
2022/03/07 09:44:42;;;;;;;8.60;5.05;;;;;;;;;;4982910;28;20050;-70
2022/03/07 09:47:09;;;;;;;9.85;4.82;;;;;;;;;;4978283;28;20121;-69
2022/03/07 09:49:36;;;;;;;11.73;5.03;;;;;;;;;;4981503;28;20050;-69
2022/03/07 09:52:02;;;;;;;8.30;5.32;;;;;;;;;;4965262;28;20042;-69
2022/03/07 09:54:29;;;;;;;8.23;5.57;;;;;;;;;;4981929;28;20049;-70
2022/03/07 09:56:55;;;;;;;13.20;5.40;;;;;;;;;;4964939;28;20054;-69
2022/03/07 09:59:22;;;;;;;6.75;5.05;;;;;;;;;;4978137;28;20247;-69
2022/03/07 10:02:00;;;;;;;8.07;5.22;;;;;;;;;;4986597;28;20403;-69
2022/03/07 10:04:27;;;;;;;7.07;5.37;;;;;;;;;;4969241;28;20046;-69
2022/03/07 10:06:54;;;;;;;6.68;4.68;;;;;;;;;;4977531;28;20414;-70
2022/03/07 10:09:25;;;;;;;10.77;5.68;;;;;;;;;;4973825;28;20065;-70
2022/03/07 10:11:55;;;;;;;8.00;5.47;;;;;;;;;;4982968;28;20046;-70
2022/03/07 10:14:42;;;;;;;9.23;5.43;;;;;;;;;;4980005;28;20050;-70
2022/03/07 10:17:38;;;;;;;7.63;5.35;;;;;;;;;;4981391;28;20058;-70
2022/03/07 10:20:05;;;;;;;8.18;5.63;;;;;;;;;;4957607;28;20579;-70
2022/03/07 10:22:42;;;;;;;8.88;5.53;;;;;;;;;;4979019;28;20546;-70
2022/03/07 10:25:09;;;;;;;8.43;5.20;;;;;;;;;;4963924;28;20637;-70
2022/03/07 10:27:46;;;;;;;8.75;5.47;;;;;;;;;;4975582;28;20450;-70
2022/03/07 10:30:13;;;;;;;8.65;5.65;;;;;;;;;;4970634;28;20072;-70
2022/03/07 10:32:39;;;;;;;9.85;5.60;;;;;;;;;;4967238;28;20046;-70
2022/03/07 10:35:07;;;;;;;15.20;6.05;;;;;;;;;;4973733;28;20061;-70
2022/03/07 10:37:37;;;;;;;7.40;5.60;;;;;;;;;;4976550;28;20435;-70
2022/03/07 10:40:07;;;;;;;12.45;5.18;;;;;;;;;;4980392;28;20074;-70
2022/03/07 10:42:35;;;;;;;10.07;5.75;;;;;;;;;;4976232;28;20088;-72
2022/03/07 10:45:07;;;;;;;9.35;5.68;;;;;;;;;;4978664;28;20062;-70
2022/03/07 10:47:34;;;;;;;7.90;5.38;;;;;;;;;;4974092;28;20058;-70
2022/03/07 10:50:01;;;;;;;13.57;5.65;;;;;;;;;;4972052;28;20050;-70
2022/03/07 10:52:35;;;;;;;16.08;5.32;;;;;;;;;;4982653;28;20374;-70
2022/03/07 10:55:02;;;;;;;7.90;4.72;;;;;;;;;;4970916;28;20093;-70
2022/03/07 10:57:28;;;;;;;8.18;4.47;;;;;;;;;;4981705;28;20507;-70
2022/03/07 11:00:02;;;;;;;5.90;4.05;;;;;;;;;;4977576;28;21026;-70
2022/03/07 11:02:36;;;;;;;6.63;4.25;;;;;;;;;;4986322;28;20054;-71
2022/03/07 11:05:03;;;;;;;7.43;5.25;;;;;;;;;;4970049;28;20077;-70
2022/03/07 11:07:30;;;;;;;7.97;4.78;;;;;;;;;;4962917;28;20594;-70
2022/03/07 11:09:56;;;;;;;5.80;4.35;;;;;;;;;;4974994;28;20046;-70
2022/03/07 11:12:24;;;;;;;7.30;4.60;;;;;;;;;;4970436;28;20054;-70
2022/03/07 11:14:51;;;;;;;7.25;4.60;;;;;;;;;;4991528;28;20058;-70
2022/03/07 11:17:18;;;;;;;5.70;4.05;;;;;;;;;;4974947;28;20049;-70
2022/03/07 11:19:46;;;;;;;10.50;4.63;;;;;;;;;;4973305;28;20046;-70
2022/03/07 11:22:13;;;;;;;;;;;;;;;;;;4980073;28;20050;-70
2022/03/07 11:24:39;;;;;;;7.05;4.28;;;;;;;;;;4971426;28;19937;-70
2022/03/07 11:27:08;;;;;;;8.48;5.22;;;;;;;;;;4972866;28;20054;-69
2022/03/07 11:29:39;;;;;;;15.50;5.18;;;;;;;;;;4956094;28;20058;-69
2022/03/07 11:32:07;;;;;;;12.23;5.53;;;;;;;;;;4975189;28;20686;-70
2022/03/07 11:34:33;;;;;;;12.05;5.32;;;;;;;;;;4964225;28;20042;-70
2022/03/07 11:37:00;;;;;;;8.82;5.72;;;;;;;;;;4979207;28;20432;-70
2022/03/07 11:39:30;;;;;;;8.63;5.35;;;;;;;;;;4982060;28;20046;-70
2022/03/07 11:42:06;;;;;;;8.18;5.00;;;;;;;;;;4971516;28;20419;-71
2022/03/07 11:44:40;;;;;;;7.15;4.93;;;;;;;;;;4984095;28;20042;-71
2022/03/07 11:47:10;;;;;;;7.80;5.43;;;;;;;;;;4978179;28;20488;-70
2022/03/07 11:49:36;;;;;;;8.57;5.13;;;;;;;;;;4985845;28;20137;-70
2022/03/07 11:52:04;;;;;;;8.18;5.18;;;;;;;;;;4976667;28;20046;-70
2022/03/07 11:54:31;;;;;;;6.75;4.97;;;;;;;;;;4980023;28;20428;-71
2022/03/07 11:57:11;;;;;;;7.50;5.25;;;;;;;;;;4980394;28;20121;-70
2022/03/07 11:59:38;;;;;;;9.32;5.13;;;;;;;;;;4978008;28;20484;-71
2022/03/07 12:02:04;;;;;;;8.77;5.80;;;;;;;;;;4984239;28;20683;-72
2022/03/07 12:04:38;;;;;;;9.15;5.95;;;;;;;;;;4982773;28;20431;-71
2022/03/07 12:07:05;;;;;;;7.97;5.65;;;;;;;;;;4984476;28;20319;-71
2022/03/07 12:09:32;;;;;;;9.82;6.05;;;;;;;;;;4969722;28;20054;-71
2022/03/07 12:12:02;;;;;;;7.38;5.75;;;;;;;;;;4982185;28;20449;-70
2022/03/07 12:14:29;;;;;;;9.73;6.88;;;;;;;;;;4988316;28;20053;-71
2022/03/07 12:16:55;;;;;;;12.23;7.43;;;;;;;;;;4978861;28;20038;-72
2022/03/07 12:19:25;;;;;;;12.07;6.20;;;;;;;;;;4986221;28;20046;-71
2022/03/07 12:21:51;;;;;;;10.10;6.15;;;;;;;;;;4971945;28;20069;-71
2022/03/07 12:24:18;;;;;;;12.15;6.93;;;;;;;;;;4980891;28;20054;-71
2022/03/07 12:26:46;;;;;;;10.02;6.60;;;;;;;;;;4976179;28;20420;-71
2022/03/07 12:29:12;;;;;;;8.88;6.93;;;;;;;;;;4984533;28;20046;-71
2022/03/07 12:31:46;;;;;;;12.35;7.80;;;;;;;;;;4984354;28;20057;-71
2022/03/07 12:34:12;;;;;;;9.55;6.90;;;;;;;;;;4985217;28;20411;-71
2022/03/07 12:36:42;;;;;;;11.45;7.65;;;;;;;;;;4977102;28;20073;-70
2022/03/07 12:39:09;;;;;;;10.50;7.15;;;;;;;;;;4975807;28;20704;-71
2022/03/07 12:41:38;;;;;;;9.48;7.07;;;;;;;;;;4984077;28;20057;-70
2022/03/07 12:44:05;;;;;;;11.02;7.22;;;;;;;;;;4975080;28;20054;-71
2022/03/07 12:46:31;;;;;;;11.50;7.43;;;;;;;;;;4985130;28;20142;-70
2022/03/07 12:48:58;;;;;;;10.18;7.03;;;;;;;;;;4974122;28;20046;-71
2022/03/07 12:51:26;;;;;;;9.32;6.07;;;;;;;;;;4978427;28;20357;-70
2022/03/07 12:53:54;;;;;;;8.98;6.30;;;;;;;;;;4980506;28;20050;-70
2022/03/07 12:56:22;;;;;;;10.45;6.78;;;;;;;;;;4982432;28;20405;-70
2022/03/07 12:58:51;;;;;;;8.27;5.30;;;;;;;;;;4981034;28;20055;-72
2022/03/07 13:01:18;;;;;;;10.80;6.07;;;;;;;;;;4975884;28;20069;-71
2022/03/07 13:03:48;;;;;;;7.80;5.35;;;;;;;;;;4976026;28;20058;-71
2022/03/07 13:06:17;;;;;;;9.88;5.80;;;;;;;;;;4973739;28;20496;-71
2022/03/07 13:08:50;;;;;;;9.60;5.72;;;;;;;;;;4980476;28;20049;-71
2022/03/07 13:11:28;;;;;;;9.93;6.00;;;;;;;;;;4982960;28;20062;-71
2022/03/07 13:13:54;;;;;;;8.48;5.65;;;;;;;;;;4981178;28;20511;-71
2022/03/07 13:16:28;;;;;;;9.85;5.55;;;;;;;;;;4975843;28;20423;-72
2022/03/07 13:19:00;;;;;;;8.65;5.50;;;;;;;;;;4968723;28;20567;-71
2022/03/07 13:21:29;;;;;;;7.55;5.80;;;;;;;;;;4981767;28;20073;-72
2022/03/07 13:23:56;;;;;;;7.82;5.00;;;;;;;;;;4963066;28;20065;-71
2022/03/07 13:26:24;;;;;;;6.10;4.68;;;;;;;;;;4983328;28;20058;-71
2022/03/07 13:29:01;;;;;;;8.00;5.95;;;;;;;;;;4985957;28;20054;-71
2022/03/07 13:31:28;;;;;;;7.60;5.80;;;;;;;;;;4980515;28;20069;-71
2022/03/07 13:33:57;;;;;;;10.05;5.78;;;;;;;;;;4989501;28;20061;-71
2022/03/07 13:36:24;;;;;;;12.05;5.60;;;;;;;;;;4967428;28;20078;-71
2022/03/07 13:38:50;;;;;;;9.50;5.85;;;;;;;;;;4980415;28;20049;-71
2022/03/07 13:41:16;;;;;;;8.88;6.13;;;;;;;;;;4982231;28;20050;-71
2022/03/07 13:43:43;;;;;;;10.82;6.20;;;;;;;;;;4978327;28;20054;-71
2022/03/07 13:46:13;;;;;;;8.60;5.85;;;;;;;;;;4971779;28;20051;-70
2022/03/07 13:48:39;;;;;;;11.25;5.72;;;;;;;;;;4973106;28;20053;-70
2022/03/07 13:51:05;;;;;;;8.40;5.95;;;;;;;;;;4980025;28;20058;-70
2022/03/07 13:53:34;;;;;;;7.47;5.72;;;;;;;;;;4975094;28;20384;-70
2022/03/07 13:56:00;;;;;;;7.75;5.57;;;;;;;;;;4966210;28;20055;-70
2022/03/07 13:58:32;;;;;;;10.00;5.68;;;;;;;;;;4969226;28;20066;-70
2022/03/07 14:01:08;;;;;;;8.35;5.93;;;;;;;;;;4984434;28;20060;-70
2022/03/07 14:03:54;;;;;;;8.00;5.82;;;;;;;;;;4978528;28;20555;-70
2022/03/07 14:06:23;;;;;;;8.02;5.60;;;;;;;;;;4979501;28;20062;-70
2022/03/07 14:08:49;;;;;;;8.20;5.60;;;;;;;;;;4990736;28;20108;-70
2022/03/07 14:11:17;;;;;;;8.45;5.68;;;;;;;;;;4965934;28;20056;-70
2022/03/07 14:13:47;;;;;;;7.40;5.77;;;;;;;;;;4982498;28;20057;-70
2022/03/07 14:16:15;;;;;;;8.38;5.72;;;;;;;;;;4971641;28;20296;-70
2022/03/07 14:18:42;;;;;;;11.57;7.07;;;;;;;;;;4973163;28;20046;-71
2022/03/07 14:21:08;;;;;;;6.82;5.07;;;;;;;;;;4972507;28;20061;-70
2022/03/07 14:23:55;;;;;;;8.18;5.93;;;;;;;;;;4974194;28;20054;-70
2022/03/07 14:26:21;;;;;;;9.27;5.90;;;;;;;;;;4974945;28;20061;-70
2022/03/07 14:28:48;;;;;;;7.75;5.97;;;;;;;;;;4973263;28;20052;-70
2022/03/07 14:31:14;;;;;;;8.60;5.68;;;;;;;;;;4981890;28;20141;-70
2022/03/07 14:33:40;;;;;;;7.40;5.05;;;;;;;;;;4970515;28;20548;-69
2022/03/07 14:36:07;;;;;;;7.93;5.57;;;;;;;;;;4985733;28;20050;-69
2022/03/07 14:38:33;;;;;;;7.97;5.47;;;;;;;;;;4973492;28;20482;-69